createdAt,value
2022-11-23T00:02:08.162Z,8.80
2022-11-23T00:04:34.915Z,8.78
2022-11-23T00:07:01.708Z,8.77
2022-11-23T00:09:28.532Z,8.76
2022-11-23T00:11:55.368Z,8.78
2022-11-23T00:14:22.162Z,8.80
2022-11-23T00:16:48.928Z,8.83
2022-11-23T00:19:15.764Z,8.86
2022-11-23T00:21:42.525Z,8.89
2022-11-23T00:24:12.769Z,8.91
2022-11-23T00:26:39.583Z,8.95
2022-11-23T00:29:06.364Z,8.97
2022-11-23T00:31:33.111Z,8.98
2022-11-23T00:33:59.873Z,8.98
2022-11-23T00:36:28.120Z,8.97
2022-11-23T00:38:54.960Z,8.93
2022-11-23T00:41:24.601Z,8.89
2022-11-23T00:43:51.597Z,8.83
2022-11-23T00:46:28.676Z,8.78
2022-11-23T00:48:57.281Z,8.74
2022-11-23T00:51:33.365Z,8.70
2022-11-23T00:54:01.876Z,8.69
2022-11-23T00:56:30.310Z,8.71
2022-11-23T00:58:59.537Z,8.71
2022-11-23T01:01:30.848Z,8.72
2022-11-23T01:03:59.123Z,8.74
2022-11-23T01:06:32.503Z,8.73
2022-11-23T01:09:13.241Z,8.70
2022-11-23T01:11:40.022Z,8.64
2022-11-23T01:14:06.792Z,8.59
2022-11-23T01:16:41.755Z,8.54
2022-11-23T01:19:12.475Z,8.49
2022-11-23T01:21:39.678Z,8.43
2022-11-23T01:24:14.788Z,8.39
2022-11-23T01:26:41.999Z,8.34
2022-11-23T01:29:08.929Z,8.30
2022-11-23T01:31:36.038Z,8.24
2022-11-23T01:34:03.977Z,8.19
2022-11-23T01:36:33.563Z,8.16
2022-11-23T01:39:03.078Z,8.11
2022-11-23T01:41:36.780Z,8.07
2022-11-23T01:44:30.823Z,8.02
2022-11-23T01:47:03.134Z,8.00
2022-11-23T01:49:39.722Z,7.99
2022-11-23T01:52:19.860Z,7.96
2022-11-23T01:54:54.996Z,7.95
2022-11-23T01:57:43.388Z,7.95
2022-11-23T02:00:13.332Z,7.95
2022-11-23T02:02:49.790Z,7.98
2022-11-23T02:05:19.827Z,8.00
2022-11-23T02:07:49.486Z,8.02
2022-11-23T02:10:17.416Z,8.04
2022-11-23T02:12:44.183Z,8.08
2022-11-23T02:15:11.229Z,8.09
2022-11-23T02:17:38.000Z,8.10
2022-11-23T02:20:10.280Z,8.12
2022-11-23T02:23:04.326Z,8.12
2022-11-23T02:25:46.259Z,8.09
2022-11-23T02:28:19.115Z,8.08
2022-11-23T02:30:49.527Z,8.10
2022-11-23T02:33:16.272Z,8.12
2022-11-23T02:35:50.928Z,8.12
2022-11-23T02:38:18.910Z,8.10
2022-11-23T02:40:46.228Z,8.09
2022-11-23T02:43:12.992Z,8.12
2022-11-23T02:45:48.424Z,8.13
2022-11-23T02:48:15.180Z,8.15
2022-11-23T02:50:41.927Z,8.20
2022-11-23T02:53:08.923Z,8.24
2022-11-23T02:55:35.726Z,8.29
2022-11-23T02:58:03.992Z,8.36
2022-11-23T03:00:31.082Z,8.42
2022-11-23T03:03:00.773Z,8.48
2022-11-23T03:05:28.078Z,8.55
2022-11-23T03:07:54.812Z,8.60
2022-11-23T03:10:21.868Z,8.67
2022-11-23T03:12:48.631Z,8.73
2022-11-23T03:15:15.443Z,8.80
2022-11-23T03:17:42.280Z,8.85
2022-11-23T03:20:09.590Z,8.90
2022-11-23T03:22:36.354Z,8.95
2022-11-23T03:25:03.208Z,8.98
2022-11-23T03:27:32.665Z,9.03
2022-11-23T03:29:59.961Z,9.08
2022-11-23T03:32:26.735Z,9.10
2022-11-23T03:34:53.470Z,9.14
2022-11-23T03:37:20.273Z,9.17
2022-11-23T03:39:47.752Z,9.22
2022-11-23T03:42:14.611Z,9.25
2022-11-23T03:44:41.410Z,9.30
2022-11-23T03:47:08.186Z,9.33
2022-11-23T03:49:34.968Z,9.36
2022-11-23T03:52:01.739Z,9.39
2022-11-23T03:54:28.498Z,9.42
2022-11-23T03:56:55.248Z,9.46
2022-11-23T03:59:22.015Z,9.47
2022-11-23T04:01:48.769Z,9.48
2022-11-23T04:04:15.542Z,9.51
2022-11-23T04:06:42.293Z,9.53
2022-11-23T04:09:09.141Z,9.55
2022-11-23T04:11:35.886Z,9.56
2022-11-23T04:14:02.667Z,9.57
2022-11-23T04:16:29.443Z,9.59
2022-11-23T04:18:56.218Z,9.61
2022-11-23T04:21:22.972Z,9.64
2022-11-23T04:23:49.757Z,9.66
2022-11-23T04:26:16.588Z,9.68
2022-11-23T04:28:43.500Z,9.69
2022-11-23T04:31:10.463Z,9.67
2022-11-23T04:33:37.208Z,9.64
2022-11-23T04:36:04.504Z,9.64
2022-11-23T04:38:31.249Z,9.61
2022-11-23T04:40:58.058Z,9.59
2022-11-23T04:43:24.855Z,9.56
2022-11-23T04:45:51.601Z,9.52
2022-11-23T04:48:18.387Z,9.48
2022-11-23T04:50:46.873Z,9.45
2022-11-23T04:53:13.869Z,9.43
2022-11-23T04:55:40.797Z,9.40
2022-11-23T04:58:07.585Z,9.35
2022-11-23T05:00:34.467Z,9.33
2022-11-23T05:03:01.805Z,9.32
2022-11-23T05:05:28.605Z,9.32
2022-11-23T05:07:55.563Z,9.31
2022-11-23T05:10:22.338Z,9.31
2022-11-23T05:12:49.165Z,9.32
2022-11-23T05:15:15.971Z,9.33
2022-11-23T05:17:43.138Z,9.35
2022-11-23T05:20:11.502Z,9.35
2022-11-23T05:22:38.329Z,9.34
2022-11-23T05:25:05.897Z,9.36
2022-11-23T05:27:33.322Z,9.36
2022-11-23T05:30:00.329Z,9.34
2022-11-23T05:32:27.509Z,9.33
2022-11-23T05:34:54.386Z,9.32
2022-11-23T05:37:22.015Z,9.30
2022-11-23T05:39:51.325Z,9.28
2022-11-23T05:42:18.442Z,9.24
2022-11-23T05:44:45.612Z,9.22
2022-11-23T05:47:14.917Z,9.21
2022-11-23T05:49:46.690Z,9.20
2022-11-23T05:52:19.031Z,9.19
2022-11-23T05:54:46.363Z,9.17
2022-11-23T05:57:15.773Z,9.17
2022-11-23T05:59:46.246Z,9.15
2022-11-23T06:02:13.587Z,9.12
2022-11-23T06:04:43.485Z,9.12
2022-11-23T06:07:10.491Z,9.12
2022-11-23T06:09:38.119Z,9.14
2022-11-23T06:12:19.907Z,9.17
2022-11-23T06:14:46.866Z,9.19
2022-11-23T06:17:17.067Z,9.21
2022-11-23T06:19:50.572Z,9.22
2022-11-23T06:22:22.970Z,9.22
2022-11-23T06:24:54.722Z,9.23
2022-11-23T06:27:21.878Z,9.22
2022-11-23T06:29:48.876Z,9.24
2022-11-23T06:32:18.923Z,9.26
2022-11-23T06:34:45.865Z,9.26
2022-11-23T06:37:13.245Z,9.27
2022-11-23T06:39:40.677Z,9.27
2022-11-23T06:42:31.316Z,9.32
2022-11-23T06:45:00.413Z,9.37
2022-11-23T06:47:36.957Z,9.41
2022-11-23T06:50:11.703Z,9.45
2022-11-23T06:52:48.908Z,9.48
2022-11-23T06:55:19.006Z,9.53
2022-11-23T06:58:04.549Z,9.56
2022-11-23T07:01:17.641Z,9.60
2022-11-23T07:03:52.860Z,9.61
2022-11-23T07:06:19.960Z,9.63
2022-11-23T07:08:55.440Z,9.66
2022-11-23T07:11:29.283Z,9.68
2022-11-23T07:13:56.221Z,9.68
2022-11-23T07:16:25.780Z,9.65
2022-11-23T07:18:52.812Z,9.60
2022-11-23T07:21:19.669Z,9.57
2022-11-23T07:23:46.576Z,9.53
2022-11-23T07:26:16.028Z,9.49
2022-11-23T07:28:43.083Z,9.45
2022-11-23T07:31:17.786Z,9.40
2022-11-23T07:33:48.027Z,9.37
2022-11-23T07:36:15.122Z,9.33
2022-11-23T07:38:48.910Z,9.31
2022-11-23T07:41:18.941Z,9.29
2022-11-23T07:43:52.287Z,9.27
2022-11-23T07:46:24.713Z,9.27
2022-11-23T07:48:52.938Z,9.23
2022-11-23T07:51:25.204Z,9.23
2022-11-23T07:53:56.959Z,9.23
2022-11-23T07:56:24.442Z,9.24
2022-11-23T07:58:51.342Z,9.24
2022-11-23T08:01:27.022Z,9.25
2022-11-23T08:03:56.620Z,9.24
2022-11-23T08:06:27.255Z,9.26
2022-11-23T08:09:21.230Z,9.28
2022-11-23T08:12:02.459Z,9.27
2022-11-23T08:14:30.991Z,9.29
2022-11-23T08:17:04.612Z,9.35
2022-11-23T08:19:36.199Z,9.42
2022-11-23T08:22:45.660Z,9.53
2022-11-23T08:25:18.104Z,9.63
2022-11-23T08:27:52.042Z,9.74
2022-11-23T08:30:22.254Z,9.88
2022-11-23T08:32:51.794Z,9.99
2022-11-23T08:35:18.915Z,10.09
2022-11-23T08:38:08.340Z,10.19
2022-11-23T08:40:45.493Z,10.28
2022-11-23T08:43:14.903Z,10.39
2022-11-23T08:45:41.823Z,10.46
2022-11-23T08:53:39.145Z,10.62
2022-11-23T08:56:55.057Z,10.66
2022-11-23T08:59:35.895Z,10.74
2022-11-23T09:02:02.838Z,10.80
2022-11-23T09:04:42.270Z,10.88
2022-11-23T09:07:27.520Z,10.91
2022-11-23T09:13:14.905Z,11.01
2022-11-23T09:16:09.520Z,11.07
2022-11-23T09:18:41.950Z,11.13
2022-11-23T09:21:20.643Z,11.16
2022-11-23T09:23:55.984Z,11.21
2022-11-23T09:26:41.429Z,11.26
2022-11-23T09:29:11.376Z,11.28
2022-11-23T09:31:58.226Z,11.34
2022-11-23T09:34:48.335Z,11.38
2022-11-23T09:37:38.122Z,11.42
2022-11-23T09:41:21.087Z,11.45
2022-11-23T09:44:41.414Z,11.47
2022-11-23T09:48:22.376Z,11.50
2022-11-23T09:51:27.558Z,11.51
2022-11-23T09:54:32.883Z,11.59
2022-11-23T09:57:01.809Z,11.64
2022-11-23T09:59:40.483Z,11.71
2022-11-23T10:02:24.748Z,11.76
2022-11-23T10:09:13.013Z,11.90
2022-11-23T10:12:16.004Z,11.94
2022-11-23T10:15:24.738Z,11.98
2022-11-23T10:18:38.464Z,12.02
2022-11-23T10:21:15.336Z,12.03
2022-11-23T10:23:55.229Z,12.08
2022-11-23T10:26:30.745Z,12.13
2022-11-23T10:29:25.800Z,12.18
2022-11-23T10:31:56.974Z,12.20
2022-11-23T10:35:04.726Z,12.24
2022-11-23T10:37:33.382Z,12.26
2022-11-23T10:40:00.418Z,12.32
2022-11-23T10:42:50.222Z,12.36
2022-11-23T10:45:27.244Z,12.40
2022-11-23T10:48:01.270Z,12.44
2022-11-23T10:50:40.408Z,12.48
2022-11-23T10:53:38.293Z,12.54
2022-11-23T10:56:13.407Z,12.56
2022-11-23T10:58:48.416Z,12.63
2022-11-23T11:01:30.415Z,12.66
2022-11-23T11:04:33.673Z,12.69
2022-11-23T11:07:37.073Z,12.73
2022-11-23T11:10:14.963Z,12.76
2022-11-23T11:12:58.046Z,12.80
2022-11-23T11:15:32.948Z,12.83
2022-11-23T11:18:05.132Z,12.86
2022-11-23T11:20:35.557Z,12.90
2022-11-23T11:23:39.508Z,12.95
2022-11-23T11:26:24.287Z,12.98
2022-11-23T11:28:54.571Z,12.98
2022-11-23T11:31:31.407Z,13.01
2022-11-23T11:34:36.223Z,13.06
2022-11-23T11:37:47.545Z,13.10
2022-11-23T11:40:38.248Z,13.15
2022-11-23T11:43:40.584Z,13.19
2022-11-23T11:46:32.015Z,13.22
2022-11-23T11:49:31.608Z,13.25
2022-11-23T11:52:26.409Z,13.29
2022-11-23T11:55:35.612Z,13.28
2022-11-23T11:58:28.197Z,13.25
2022-11-23T12:01:38.290Z,13.21
2022-11-23T12:05:08.717Z,13.18
2022-11-23T12:11:07.893Z,13.21
2022-11-23T12:13:45.667Z,13.22
2022-11-23T12:17:17.325Z,13.27
2022-11-23T12:20:25.074Z,13.33
2022-11-23T12:23:20.161Z,13.45
2022-11-23T12:26:40.726Z,13.60
2022-11-23T12:29:27.171Z,13.66
2022-11-23T12:32:42.540Z,13.71
2022-11-23T12:35:50.454Z,13.70
2022-11-23T12:38:41.478Z,13.68
2022-11-23T12:41:42.913Z,13.66
2022-11-23T12:44:47.441Z,13.64
2022-11-23T12:48:01.470Z,13.63
2022-11-23T12:51:08.741Z,13.59
2022-11-23T12:54:17.289Z,13.55
2022-11-23T12:57:32.340Z,13.49
2022-11-23T13:00:30.024Z,13.42
2022-11-23T13:03:38.563Z,13.37
2022-11-23T13:06:24.233Z,13.34
2022-11-23T13:14:37.737Z,13.24
2022-11-23T13:16:33.808Z,13.31
2022-11-23T13:18:30.230Z,13.21
2022-11-23T13:25:39.667Z,13.12
2022-11-23T13:28:38.305Z,13.13
2022-11-23T13:31:31.555Z,13.16
2022-11-23T13:34:41.773Z,13.15
2022-11-23T13:37:13.233Z,13.12
2022-11-23T13:39:58.448Z,13.14
2022-11-23T13:42:27.274Z,13.12
2022-11-23T13:45:39.152Z,13.14
2022-11-23T13:48:13.324Z,13.12
2022-11-23T13:50:49.433Z,13.13
2022-11-23T13:53:29.498Z,13.14
2022-11-23T13:56:16.010Z,13.13
2022-11-23T13:58:52.806Z,13.12
2022-11-23T14:02:23.104Z,13.09
2022-11-23T14:04:50.526Z,13.05
2022-11-23T14:07:59.043Z,13.04
2022-11-23T14:10:44.071Z,13.02
2022-11-23T14:13:40.372Z,12.97
2022-11-23T14:20:40.669Z,12.85
2022-11-23T14:23:57.327Z,12.81
2022-11-23T14:27:47.531Z,12.74
2022-11-23T14:30:53.792Z,12.67
2022-11-23T14:34:11.287Z,12.62
2022-11-23T14:37:18.654Z,12.57
2022-11-23T14:40:03.009Z,12.51
2022-11-23T14:42:59.569Z,12.46
2022-11-23T14:45:46.710Z,12.42
2022-11-23T14:49:01.332Z,12.37
2022-11-23T15:06:18.730Z,11.89
2022-11-23T15:09:28.254Z,11.87
2022-11-23T15:12:20.355Z,11.82
2022-11-23T15:14:56.114Z,11.80
2022-11-23T15:17:27.040Z,11.76
2022-11-23T15:20:01.326Z,11.75
2022-11-23T15:22:29.092Z,11.71
2022-11-23T15:25:08.222Z,11.68
2022-11-23T15:27:40.629Z,11.66
2022-11-23T15:30:31.121Z,11.61
2022-11-23T15:33:00.150Z,11.59
2022-11-23T15:35:33.862Z,11.56
2022-11-23T15:38:03.438Z,11.52
2022-11-23T15:40:35.713Z,11.49
2022-11-23T15:43:02.952Z,11.46
2022-11-23T15:45:41.992Z,11.44
2022-11-23T15:48:22.001Z,11.38
2022-11-23T15:50:56.824Z,11.36
2022-11-23T15:53:50.527Z,11.30
2022-11-23T15:56:27.556Z,11.26
2022-11-23T15:58:55.215Z,11.20
2022-11-23T16:01:22.717Z,11.17
2022-11-23T16:04:01.018Z,11.13
2022-11-23T16:06:43.048Z,11.08
2022-11-23T16:09:53.393Z,11.00
2022-11-23T16:12:33.705Z,10.95
2022-11-23T16:15:41.344Z,10.86
2022-11-23T16:18:23.237Z,10.83
2022-11-23T16:21:00.989Z,10.77
2022-11-23T16:23:44.171Z,10.74
2022-11-23T16:26:12.854Z,10.70
2022-11-23T16:28:52.744Z,10.70
2022-11-23T16:31:29.902Z,10.69
2022-11-23T16:33:56.947Z,10.66
2022-11-23T16:36:28.353Z,10.65
2022-11-23T16:39:03.958Z,10.65
2022-11-23T16:41:32.402Z,10.63
2022-11-23T16:43:59.252Z,10.63
2022-11-23T16:46:26.152Z,10.61
2022-11-23T16:48:55.423Z,10.59
2022-11-23T16:51:22.257Z,10.57
2022-11-23T16:56:36.450Z,10.53
2022-11-23T16:59:03.390Z,10.51
2022-11-23T17:01:31.363Z,10.49
2022-11-23T17:03:58.428Z,10.47
2022-11-23T17:06:25.396Z,10.44
2022-11-23T17:09:00.510Z,10.43
2022-11-23T17:11:34.480Z,10.39
2022-11-23T17:14:01.296Z,10.37
2022-11-23T17:16:28.113Z,10.34
2022-11-23T17:18:54.908Z,10.32
2022-11-23T17:21:21.691Z,10.29
2022-11-23T17:23:48.512Z,10.27
2022-11-23T17:26:52.990Z,10.25
2022-11-23T17:29:20.865Z,10.19
2022-11-23T17:31:50.238Z,10.19
2022-11-23T17:34:18.186Z,10.17
2022-11-23T17:36:47.361Z,10.15
2022-11-23T17:39:21.477Z,10.15
2022-11-23T17:41:48.641Z,10.12
2022-11-23T17:44:17.444Z,10.11
2022-11-23T17:46:45.154Z,10.07
2022-11-23T17:49:14.941Z,10.06
2022-11-23T17:51:42.994Z,10.04
2022-11-23T17:54:10.041Z,10.00
2022-11-23T17:56:37.513Z,9.99
2022-11-23T17:59:06.548Z,9.97
2022-11-23T18:01:33.693Z,9.94
2022-11-23T18:04:04.689Z,9.94
2022-11-23T18:06:31.669Z,9.91
2022-11-23T18:08:58.465Z,9.89
2022-11-23T18:11:25.439Z,9.86
2022-11-23T18:13:52.378Z,9.83
2022-11-23T18:16:20.479Z,9.80
2022-11-23T18:18:47.918Z,9.77
2022-11-23T18:21:15.234Z,9.75
2022-11-23T18:23:42.602Z,9.72
2022-11-23T18:26:25.861Z,9.70
2022-11-23T18:28:53.574Z,9.67
2022-11-23T18:31:20.485Z,9.65
2022-11-23T18:33:47.662Z,9.61
2022-11-23T18:36:14.519Z,9.60
2022-11-23T18:38:44.707Z,9.56
2022-11-23T18:41:12.354Z,9.52
2022-11-23T18:43:39.147Z,9.50
2022-11-23T18:46:08.082Z,9.48
2022-11-23T18:48:34.952Z,9.45
2022-11-23T18:51:03.436Z,9.43
2022-11-23T18:53:32.249Z,9.39
2022-11-23T18:56:06.792Z,9.40
2022-11-23T18:58:38.596Z,9.38
2022-11-23T19:01:20.987Z,9.35
2022-11-23T19:03:52.672Z,9.31
2022-11-23T19:06:22.135Z,9.28
2022-11-23T19:08:57.309Z,9.27
2022-11-23T19:11:27.326Z,9.22
2022-11-23T19:13:56.689Z,9.20
2022-11-23T19:16:28.742Z,9.18
2022-11-23T19:19:05.603Z,9.17
2022-11-23T19:21:35.725Z,9.14
2022-11-23T19:24:03.579Z,9.11
2022-11-23T19:26:31.147Z,9.08
2022-11-23T19:28:59.336Z,9.05
2022-11-23T19:31:29.746Z,9.03
2022-11-23T19:34:02.379Z,9.03
2022-11-23T19:36:31.425Z,8.98
2022-11-23T19:39:00.488Z,8.96
2022-11-23T19:41:30.730Z,8.94
2022-11-23T19:43:59.688Z,8.92
2022-11-23T19:46:29.737Z,8.90
2022-11-23T19:48:57.594Z,8.89
2022-11-23T19:51:25.747Z,8.87
2022-11-23T19:53:52.609Z,8.86
2022-11-23T19:56:25.320Z,8.85
2022-11-23T19:58:54.005Z,8.84
2022-11-23T20:01:23.178Z,8.84
2022-11-23T20:03:53.624Z,8.84
2022-11-23T20:06:25.271Z,8.82
2022-11-23T20:08:59.024Z,8.82
2022-11-23T20:11:28.246Z,8.80
2022-11-23T20:13:55.864Z,8.79
2022-11-23T20:16:24.770Z,8.79
2022-11-23T20:19:10.124Z,8.77
2022-11-23T20:21:38.016Z,8.77
2022-11-23T20:24:12.232Z,8.75
2022-11-23T20:26:39.504Z,8.69
2022-11-23T20:29:08.382Z,8.69
2022-11-23T20:31:36.211Z,8.69
2022-11-23T20:34:07.399Z,8.70
2022-11-23T20:36:37.938Z,8.69
2022-11-23T20:39:07.872Z,8.71
2022-11-23T20:41:37.461Z,8.72
2022-11-23T20:44:11.788Z,8.74
2022-11-23T20:47:01.049Z,8.78
2022-11-23T20:49:25.733Z,8.81
2022-11-23T20:51:52.474Z,8.85
2022-11-23T20:54:19.221Z,8.90
2022-11-23T20:56:46.027Z,8.96
2022-11-23T20:59:12.867Z,9.03
2022-11-23T21:01:40.896Z,9.09
2022-11-23T21:04:09.020Z,9.13
2022-11-23T21:06:39.543Z,9.20
2022-11-23T21:09:08.881Z,9.25
2022-11-23T21:11:54.410Z,9.30
2022-11-23T21:14:34.142Z,9.34
2022-11-23T21:17:01.285Z,9.39
2022-11-23T21:19:31.197Z,9.43
2022-11-23T21:22:02.255Z,9.49
2022-11-23T21:24:29.124Z,9.53
2022-11-23T21:26:55.898Z,9.55
2022-11-23T21:29:22.953Z,9.58
2022-11-23T21:31:50.346Z,9.62
2022-11-23T21:34:22.473Z,9.64
2022-11-23T21:36:50.483Z,9.67
2022-11-23T21:39:17.846Z,9.68
2022-11-23T21:41:45.484Z,9.70
2022-11-23T21:44:12.623Z,9.72
2022-11-23T21:46:41.257Z,9.75
2022-11-23T21:49:08.498Z,9.75
2022-11-23T21:51:37.043Z,9.78
2022-11-23T21:54:07.520Z,9.80
2022-11-23T21:56:34.332Z,9.82
2022-11-23T21:59:01.260Z,9.84
2022-11-23T22:01:31.581Z,9.89
2022-11-23T22:04:03.649Z,9.89
2022-11-23T22:06:30.427Z,9.92
2022-11-23T22:08:59.854Z,9.92
2022-11-23T22:11:33.084Z,9.94
2022-11-23T22:14:02.111Z,9.94
2022-11-23T22:16:32.708Z,9.94
2022-11-23T22:19:00.603Z,9.94
2022-11-23T22:21:32.914Z,9.95
2022-11-23T22:24:00.213Z,9.93
2022-11-23T22:26:27.686Z,9.94
2022-11-23T22:28:55.580Z,9.94
2022-11-23T22:31:25.548Z,9.96
2022-11-23T22:33:53.544Z,9.95
2022-11-23T22:36:23.528Z,9.96
2022-11-23T22:39:02.579Z,9.98
2022-11-23T22:41:34.812Z,9.98
2022-11-23T22:44:01.774Z,9.98
2022-11-23T22:46:29.482Z,9.99
2022-11-23T22:48:59.352Z,9.99
2022-11-23T22:51:28.472Z,10.01
2022-11-23T22:53:57.746Z,10.02
2022-11-23T22:56:25.699Z,10.03
2022-11-23T22:58:52.764Z,10.04
2022-11-23T23:01:23.668Z,10.07
2022-11-23T23:03:56.217Z,10.09
2022-11-23T23:06:26.758Z,10.11
2022-11-23T23:09:01.193Z,10.12
2022-11-23T23:11:31.423Z,10.09
2022-11-23T23:13:58.359Z,10.08
2022-11-23T23:16:26.082Z,10.07
2022-11-23T23:18:56.775Z,10.06
2022-11-23T23:21:25.780Z,10.06
2022-11-23T23:23:55.636Z,10.06
2022-11-23T23:26:25.316Z,10.06
2022-11-23T23:28:57.441Z,10.07
2022-11-23T23:31:25.230Z,10.05
2022-11-23T23:33:53.566Z,10.05
2022-11-23T23:36:22.070Z,10.04
2022-11-23T23:38:49.053Z,10.03
2022-11-23T23:41:15.857Z,10.01
2022-11-23T23:43:43.060Z,9.98
2022-11-23T23:46:12.699Z,9.97
2022-11-23T23:48:41.058Z,9.95
2022-11-23T23:51:23.399Z,9.95
2022-11-23T23:53:51.523Z,9.94
2022-11-23T23:56:25.226Z,9.94
2022-11-23T23:58:52.501Z,9.93
